Time;durP1;ratioP1;P1;durP2;ratioP2;P2;SDS_P1;SDS_P2;PMS_P1;PMS_P2;Temp;Humidity;BMP_temperature;BMP_pressure;BME280_temperature;BME280_humidity;BME280_pressure;Samples;Min_cycle;Max_cycle;Signal;HPM_P1;HPM_P2
2021/11/13 00:01:43;;;;;;;52.03;24.80;;;5.80;99.90;;;;;;5021159;28;20210;-54
2021/11/13 00:04:09;;;;;;;47.73;25.23;;;5.70;99.90;;;;;;5008436;28;21173;-52
2021/11/13 00:06:36;;;;;;;51.93;25.47;;;5.70;99.90;;;;;;5022139;28;20220;-52
2021/11/13 00:09:05;;;;;;;53.93;25.80;;;5.70;99.90;;;;;;5019724;28;20215;-52
2021/11/13 00:11:32;;;;;;;46.63;23.63;;;5.70;99.90;;;;;;5022792;28;20204;-50
2021/11/13 00:14:02;;;;;;;45.40;24.13;;;5.70;99.90;;;;;;5014212;28;20901;-52
2021/11/13 00:16:28;;;;;;;53.63;26.20;;;5.70;99.90;;;;;;5023226;28;20696;-50
2021/11/13 00:18:55;;;;;;;52.53;23.97;;;5.70;99.90;;;;;;5019157;28;20842;-52
2021/11/13 00:21:22;;;;;;;53.13;24.70;;;5.70;99.90;;;;;;5010036;28;20218;-53
2021/11/13 00:23:48;;;;;;;49.90;25.07;;;5.70;99.90;;;;;;5019868;28;20577;-52
2021/11/13 00:26:16;;;;;;;48.17;23.83;;;5.70;99.90;;;;;;5021415;28;20226;-50
2021/11/13 00:28:43;;;;;;;50.03;24.90;;;5.70;99.90;;;;;;5015578;28;20211;-53
2021/11/13 00:31:09;;;;;;;46.23;22.23;;;5.70;99.90;;;;;;5025424;28;20280;-52
2021/11/13 00:33:36;;;;;;;50.67;24.67;;;5.60;99.90;;;;;;5025920;28;20195;-53
2021/11/13 00:36:03;;;;;;;49.73;24.23;;;5.60;99.90;;;;;;5009904;28;20328;-52
2021/11/13 00:38:30;;;;;;;50.33;25.23;;;5.60;99.90;;;;;;5026301;28;20200;-52
2021/11/13 00:40:57;;;;;;;50.13;23.97;;;5.60;99.90;;;;;;5022816;28;20211;-51
2021/11/13 00:43:26;;;;;;;49.90;24.63;;;5.60;99.90;;;;;;5026166;28;20211;-52
2021/11/13 00:45:55;;;;;;;53.17;25.47;;;5.60;99.90;;;;;;5017981;28;20208;-49
2021/11/13 00:48:22;;;;;;;50.50;25.07;;;5.60;99.90;;;;;;5026891;28;20207;-50
2021/11/13 00:50:51;;;;;;;54.30;24.43;;;5.60;99.90;;;;;;5023228;28;20738;-53
2021/11/13 00:53:18;;;;;;;49.60;24.90;;;5.60;99.90;;;;;;5012956;28;20231;-52
2021/11/13 00:55:45;;;;;;;53.83;24.10;;;5.60;99.90;;;;;;5024041;28;20216;-52
2021/11/13 00:58:12;;;;;;;56.17;25.30;;;5.60;99.90;;;;;;5025241;28;20199;-49
2021/11/13 01:00:40;;;;;;;49.40;25.00;;;5.60;99.90;;;;;;5020798;28;20196;-52
2021/11/13 01:03:08;;;;;;;56.37;25.97;;;5.60;99.90;;;;;;5024136;28;20192;-49
2021/11/13 01:05:34;;;;;;;55.83;25.30;;;5.60;99.90;;;;;;5026042;28;20590;-54
2021/11/13 01:08:01;;;;;;;59.90;25.57;;;5.70;99.90;;;;;;5009538;28;20211;-54
2021/11/13 01:10:28;;;;;;;50.07;24.30;;;5.70;99.90;;;;;;5026076;28;20220;-51
2021/11/13 01:12:54;;;;;;;51.83;23.93;;;5.70;99.90;;;;;;5021621;28;20196;-51
2021/11/13 01:15:22;;;;;;;46.73;23.57;;;5.70;99.90;;;;;;5020257;28;20543;-51
2021/11/13 01:17:51;;;;;;;51.07;23.50;;;5.70;99.90;;;;;;5022513;28;20246;-53
2021/11/13 01:20:19;;;;;;;49.87;24.27;;;5.70;99.90;;;;;;5026155;28;20200;-51
2021/11/13 01:22:47;;;;;;;55.70;24.77;;;5.70;99.90;;;;;;5010074;28;20231;-50
2021/11/13 01:25:15;;;;;;;50.53;24.77;;;5.70;99.90;;;;;;5024931;28;20660;-52
2021/11/13 01:27:42;;;;;;;46.10;24.67;;;5.70;99.90;;;;;;5024190;28;20212;-53
2021/11/13 01:30:10;;;;;;;51.87;25.43;;;5.70;99.90;;;;;;5019186;28;20228;-49
2021/11/13 01:32:37;;;;;;;53.37;24.93;;;5.60;99.90;;;;;;5024982;28;20208;-50
2021/11/13 01:35:06;;;;;;;48.80;24.33;;;5.60;99.90;;;;;;5022931;28;20286;-53
2021/11/13 01:37:33;;;;;;;48.20;24.47;;;5.60;99.90;;;;;;5025912;28;20204;-52
2021/11/13 01:40:00;;;;;;;49.57;25.10;;;5.60;99.90;;;;;;5010048;28;20224;-51
2021/11/13 01:42:29;;;;;;;46.13;23.47;;;5.60;99.90;;;;;;5025155;28;20208;-53
2021/11/13 01:44:56;;;;;;;49.73;24.83;;;5.60;99.90;;;;;;5021424;28;20196;-50
2021/11/13 01:47:24;;;;;;;45.73;23.67;;;5.60;99.90;;;;;;5020968;28;20227;-50
2021/11/13 01:49:51;;;;;;;51.93;24.93;;;5.60;99.90;;;;;;5022230;28;20216;-53
2021/11/13 01:52:19;;;;;;;49.70;24.03;;;5.60;99.90;;;;;;5025431;28;20207;-50
2021/11/13 01:54:46;;;;;;;47.97;23.60;;;5.60;99.90;;;;;;5009396;28;20211;-53
2021/11/13 01:57:20;;;;;;;51.80;24.03;;;5.60;99.90;;;;;;5024600;28;20223;-51
2021/11/13 01:59:48;;;;;;;49.23;23.67;;;5.60;99.90;;;;;;5022728;28;20235;-54
2021/11/13 02:02:15;;;;;;;52.77;24.83;;;5.60;99.90;;;;;;5019895;28;20208;-53
2021/11/13 02:04:42;;;;;;;46.67;23.53;;;5.60;99.90;;;;;;5023718;28;20567;-51
2021/11/13 02:07:09;;;;;;;49.70;24.27;;;5.60;99.90;;;;;;5023233;28;20922;-47
2021/11/13 02:09:37;;;;;;;48.73;24.67;;;5.60;99.90;;;;;;5022442;28;20688;-53
2021/11/13 02:12:04;;;;;;;50.50;25.37;;;5.60;99.90;;;;;;5012272;28;20207;-49
2021/11/13 02:14:31;;;;;;;49.00;24.13;;;5.60;99.90;;;;;;5024701;28;20204;-50
2021/11/13 02:16:58;;;;;;;43.90;23.27;;;5.60;99.90;;;;;;5016164;28;20900;-54
2021/11/13 02:19:24;;;;;;;45.07;22.00;;;5.60;99.90;;;;;;5024951;28;20571;-53
2021/11/13 02:22:00;;;;;;;45.73;22.03;;;5.60;99.90;;;;;;5020436;28;20945;-50
2021/11/13 02:24:26;;;;;;;46.70;23.07;;;5.60;99.90;;;;;;5024629;28;20208;-49
2021/11/13 02:26:53;;;;;;;43.50;22.77;;;5.60;99.90;;;;;;5007425;28;20924;-53
2021/11/13 02:29:20;;;;;;;48.37;22.03;;;5.60;99.90;;;;;;5024479;28;20239;-54
2021/11/13 02:31:47;;;;;;;43.77;22.70;;;5.60;99.90;;;;;;5021735;28;20196;-53
2021/11/13 02:34:14;;;;;;;42.93;22.77;;;5.60;99.90;;;;;;5019401;28;20208;-51
2021/11/13 02:36:42;;;;;;;46.23;23.67;;;5.60;99.90;;;;;;5022826;28;20231;-54
2021/11/13 02:39:12;;;;;;;47.53;23.03;;;5.60;99.90;;;;;;5022629;28;20227;-48
2021/11/13 02:41:41;;;;;;;41.43;21.47;;;5.60;99.90;;;;;;5003712;28;20210;-54
2021/11/13 02:44:08;;;;;;;42.90;24.03;;;5.60;99.90;;;;;;5015765;28;20184;-49
2021/11/13 02:46:35;;;;;;;40.23;22.50;;;5.60;99.90;;;;;;5020344;28;20243;-54
2021/11/13 02:49:05;;;;;;;50.83;22.20;;;5.60;99.90;;;;;;5010955;28;20226;-51
2021/11/13 02:51:32;;;;;;;45.10;21.67;;;5.60;99.90;;;;;;5023567;28;20700;-49
2021/11/13 02:53:58;;;;;;;38.00;22.07;;;5.70;99.90;;;;;;5019962;28;20204;-53
2021/11/13 02:56:27;;;;;;;40.23;21.80;;;5.70;99.90;;;;;;5018042;28;20220;-52
2021/11/13 02:58:53;;;;;;;42.77;22.30;;;5.70;99.90;;;;;;5006164;28;20279;-53
2021/11/13 03:01:21;;;;;;;41.80;22.67;;;5.60;99.90;;;;;;5018105;28;20207;-53
2021/11/13 03:03:49;;;;;;;42.20;22.50;;;5.70;99.90;;;;;;5010332;28;20196;-51
2021/11/13 03:06:18;;;;;;;42.77;22.50;;;5.70;99.90;;;;;;5016996;28;20641;-51
2021/11/13 03:08:46;;;;;;;45.50;22.87;;;5.70;99.90;;;;;;5020962;28;20303;-53
2021/11/13 03:11:15;;;;;;;40.87;21.23;;;5.70;99.90;;;;;;5022686;28;20712;-50
2021/11/13 03:13:46;;;;;;;41.33;22.93;;;5.70;99.90;;;;;;5008590;28;20211;-48
2021/11/13 03:16:14;;;;;;;42.30;21.03;;;5.70;99.90;;;;;;5022348;28;20231;-47
2021/11/13 03:18:41;;;;;;;42.27;21.20;;;5.70;99.90;;;;;;5021256;28;20204;-48
2021/11/13 03:21:08;;;;;;;40.77;22.30;;;5.70;99.90;;;;;;5018494;28;20436;-48
2021/11/13 03:23:41;;;;;;;41.30;22.00;;;5.80;99.90;;;;;;5022532;28;20203;-53
2021/11/13 03:26:11;;;;;;;44.50;21.77;;;5.70;99.90;;;;;;5021850;28;20958;-51
2021/11/13 03:28:40;;;;;;;41.53;20.90;;;5.70;99.90;;;;;;5009848;28;20212;-50
2021/11/13 03:31:09;;;;;;;44.17;22.00;;;5.70;99.90;;;;;;5017194;28;20216;-54
2021/11/13 03:33:38;;;;;;;42.03;22.27;;;5.70;99.90;;;;;;5023129;28;20200;-52
2021/11/13 03:36:05;;;;;;;44.97;22.10;;;5.70;99.90;;;;;;5015749;28;21398;-50
2021/11/13 03:38:33;;;;;;;40.43;22.53;;;5.80;99.90;;;;;;5022858;28;20204;-52
2021/11/13 03:41:00;;;;;;;37.97;21.73;;;5.70;99.90;;;;;;5019647;28;20203;-53
2021/11/13 03:43:27;;;;;;;41.60;21.67;;;5.70;99.90;;;;;;5009895;28;20200;-54
2021/11/13 03:45:54;;;;;;;45.60;21.90;;;5.80;99.90;;;;;;5019291;28;20301;-52
2021/11/13 03:48:22;;;;;;;40.70;22.07;;;5.80;99.90;;;;;;5023522;28;20200;-53
2021/11/13 03:50:49;;;;;;;40.80;20.47;;;5.80;99.90;;;;;;5015511;28;20220;-52
2021/11/13 03:53:16;;;;;;;43.43;22.13;;;5.80;99.90;;;;;;5022746;28;20653;-51
2021/11/13 03:55:43;;;;;;;42.67;23.03;;;5.80;99.90;;;;;;5021314;28;20227;-54
2021/11/13 03:58:10;;;;;;;40.90;21.83;;;5.80;99.90;;;;;;5021678;28;20198;-51
2021/11/13 04:00:37;;;;;;;44.83;23.20;;;5.80;99.90;;;;;;5004037;28;20210;-51
2021/11/13 04:03:04;;;;;;;44.10;22.33;;;5.80;99.90;;;;;;5018495;28;20215;-52
2021/11/13 04:05:32;;;;;;;42.40;23.40;;;5.80;99.90;;;;;;5023298;28;20303;-49
2021/11/13 04:08:03;;;;;;;43.27;22.53;;;5.90;99.90;;;;;;5015043;28;20216;-52
2021/11/13 04:10:31;;;;;;;42.03;21.20;;;5.90;99.90;;;;;;5023143;28;20588;-48
2021/11/13 04:12:58;;;;;;;42.83;21.67;;;5.90;99.90;;;;;;5018763;28;20196;-49
2021/11/13 04:15:24;;;;;;;40.70;21.67;;;5.90;99.90;;;;;;5009112;28;20318;-48
2021/11/13 04:17:51;;;;;;;37.50;19.60;;;5.90;99.90;;;;;;5019006;28;20204;-51
2021/11/13 04:20:19;;;;;;;42.03;22.43;;;5.90;99.90;;;;;;5023115;28;20207;-50
2021/11/13 04:22:48;;;;;;;45.17;22.07;;;5.90;99.90;;;;;;5015586;28;20212;-52
2021/11/13 04:25:15;;;;;;;41.20;22.43;;;6.00;99.90;;;;;;5022358;28;20235;-52
2021/11/13 04:27:42;;;;;;;39.50;21.37;;;6.00;99.90;;;;;;5021424;28;20211;-52
2021/11/13 04:30:12;;;;;;;39.20;21.47;;;6.00;99.90;;;;;;5005886;28;20224;-53
2021/11/13 04:32:39;;;;;;;35.73;19.83;;;6.00;99.90;;;;;;5018118;28;20196;-53
2021/11/13 04:35:22;;;;;;;38.27;21.63;;;6.00;99.90;;;;;;5020538;28;20208;-53
2021/11/13 04:37:53;;;;;;;40.60;22.43;;;6.00;99.90;;;;;;5015265;28;20204;-53
2021/11/13 04:40:23;;;;;;;37.43;20.43;;;6.00;99.90;;;;;;5022962;28;20188;-51
2021/11/13 04:42:50;;;;;;;43.93;21.10;;;6.00;99.90;;;;;;5018918;28;20211;-52
2021/11/13 04:45:17;;;;;;;42.30;21.40;;;6.00;99.90;;;;;;5022302;28;20196;-50
2021/11/13 04:47:44;;;;;;;36.03;20.10;;;6.00;99.90;;;;;;5007207;28;20208;-53
2021/11/13 04:50:13;;;;;;;41.67;21.83;;;6.00;99.90;;;;;;5021299;28;20464;-50
2021/11/13 04:52:40;;;;;;;40.77;21.70;;;6.00;99.90;;;;;;5016347;28;20200;-54
2021/11/13 04:55:09;;;;;;;42.07;21.90;;;6.00;99.90;;;;;;5020175;28;20192;-50
2021/11/13 04:57:35;;;;;;;37.57;21.10;;;6.00;99.90;;;;;;5021290;28;20211;-49
2021/11/13 05:00:10;;;;;;;38.43;20.83;;;6.00;99.90;;;;;;5013980;28;20204;-49
2021/11/13 05:02:38;;;;;;;41.97;22.67;;;6.00;99.90;;;;;;5002883;28;20208;-54
2021/11/13 05:05:05;;;;;;;37.80;21.33;;;6.00;99.90;;;;;;5019590;28;20192;-51
2021/11/13 05:07:32;;;;;;;42.63;21.80;;;6.00;99.90;;;;;;5022888;28;20549;-52
2021/11/13 05:09:58;;;;;;;41.93;22.03;;;6.00;99.90;;;;;;5013953;28;20192;-49
2021/11/13 05:12:26;;;;;;;39.83;21.20;;;6.00;99.90;;;;;;5022502;28;20210;-51
2021/11/13 05:14:53;;;;;;;36.03;20.77;;;6.00;99.90;;;;;;5016523;28;20204;-51
2021/11/13 05:17:20;;;;;;;45.17;23.23;;;6.00;99.90;;;;;;5026392;28;20622;-54
2021/11/13 05:19:47;;;;;;;43.53;21.93;;;6.00;99.90;;;;;;5008970;28;20212;-52
2021/11/13 05:22:13;;;;;;;45.27;23.67;;;6.00;99.90;;;;;;5025046;28;20542;-49
2021/11/13 05:24:40;;;;;;;40.37;21.80;;;6.00;99.90;;;;;;5019782;28;20211;-52
2021/11/13 05:27:07;;;;;;;46.33;22.70;;;5.90;99.90;;;;;;5022391;28;20212;-50
2021/11/13 05:29:35;;;;;;;37.27;20.37;;;6.00;99.90;;;;;;5019958;28;20223;-52
2021/11/13 05:32:03;;;;;;;42.00;22.60;;;5.90;99.90;;;;;;5023574;28;20220;-49
2021/11/13 05:34:30;;;;;;;42.10;22.10;;;5.90;99.90;;;;;;5004928;28;20222;-50
2021/11/13 05:36:57;;;;;;;47.60;23.60;;;5.90;99.90;;;;;;5019317;28;20219;-51
2021/11/13 05:39:28;;;;;;;41.40;21.87;;;5.90;99.90;;;;;;5016193;28;20215;-50
2021/11/13 05:41:56;;;;;;;40.83;22.53;;;5.90;99.90;;;;;;5015457;28;20738;-52
2021/11/13 05:44:24;;;;;;;40.37;22.57;;;5.90;99.90;;;;;;5019425;28;20283;-49
2021/11/13 05:46:54;;;;;;;41.17;22.63;;;5.90;99.90;;;;;;5017778;28;20224;-49
2021/11/13 05:49:21;;;;;;;39.67;22.20;;;5.80;99.90;;;;;;5025349;28;20196;-52
2021/11/13 05:51:51;;;;;;;39.40;23.07;;;5.80;99.90;;;;;;5006167;28;20929;-48
2021/11/13 05:54:18;;;;;;;40.77;22.00;;;5.80;99.90;;;;;;5024727;28;20196;-53
2021/11/13 05:56:45;;;;;;;44.07;23.70;;;5.80;99.90;;;;;;5015096;28;20218;-51
2021/11/13 05:59:13;;;;;;;42.60;22.03;;;5.80;99.90;;;;;;5023383;28;20626;-47
2021/11/13 06:01:41;;;;;;;43.50;22.13;;;5.80;99.90;;;;;;5013909;28;20231;-54
2021/11/13 06:04:10;;;;;;;37.27;21.60;;;5.80;99.90;;;;;;5019708;28;20199;-54
2021/11/13 06:06:37;;;;;;;46.07;22.83;;;5.80;99.90;;;;;;5006804;28;20600;-52
2021/11/13 06:09:04;;;;;;;40.67;23.37;;;5.80;99.90;;;;;;5022779;28;20220;-51
2021/11/13 06:11:31;;;;;;;46.70;23.23;;;5.80;99.90;;;;;;5010236;28;20224;-54
2021/11/13 06:13:58;;;;;;;43.17;21.50;;;5.80;99.90;;;;;;5024463;28;20204;-53
2021/11/13 06:16:24;;;;;;;45.17;23.03;;;5.70;99.90;;;;;;5015858;28;20435;-55
2021/11/13 06:18:51;;;;;;;45.23;24.43;;;5.70;99.90;;;;;;5020529;28;20208;-48
2021/11/13 06:21:19;;;;;;;45.33;22.00;;;5.70;99.90;;;;;;5007757;28;20297;-51
2021/11/13 06:23:46;;;;;;;40.73;22.00;;;5.70;99.90;;;;;;5020202;28;20204;-48
2021/11/13 06:26:15;;;;;;;42.93;23.07;;;5.70;99.90;;;;;;5017013;28;20312;-49
2021/11/13 06:28:42;;;;;;;46.47;22.70;;;5.80;99.90;;;;;;5024448;28;20573;-51
2021/11/13 06:31:09;;;;;;;41.10;21.97;;;5.80;99.90;;;;;;5019519;28;20223;-54
2021/11/13 06:33:38;;;;;;;42.93;23.73;;;5.80;99.90;;;;;;5017239;28;20692;-52
2021/11/13 06:36:06;;;;;;;40.13;22.93;;;5.80;99.90;;;;;;5023189;28;20220;-53
2021/11/13 06:38:34;;;;;;;46.20;23.23;;;5.80;99.90;;;;;;5012158;28;20262;-48
2021/11/13 06:41:00;;;;;;;44.47;23.27;;;5.70;99.90;;;;;;5023781;28;20223;-53
2021/11/13 06:43:27;;;;;;;41.33;22.23;;;5.80;99.90;;;;;;5019871;28;20199;-53
2021/11/13 06:45:54;;;;;;;45.40;22.00;;;5.80;99.90;;;;;;5032456;28;20219;-49
2021/11/13 06:48:21;;;;;;;37.10;21.63;;;5.80;99.90;;;;;;5013458;28;20204;-55
2021/11/13 06:50:48;;;;;;;42.83;22.47;;;5.70;99.90;;;;;;5029211;28;20222;-49
2021/11/13 06:53:15;;;;;;;39.60;22.70;;;5.70;99.90;;;;;;5005283;28;20211;-55
2021/11/13 06:55:43;;;;;;;42.57;23.07;;;5.80;99.90;;;;;;5023583;28;20211;-49
2021/11/13 06:58:11;;;;;;;39.13;22.17;;;5.80;99.90;;;;;;5016834;28;20212;-54
2021/11/13 07:00:38;;;;;;;45.50;23.10;;;5.80;99.90;;;;;;5026572;28;20199;-53
2021/11/13 07:03:05;;;;;;;42.30;22.83;;;5.80;99.90;;;;;;5025962;28;20238;-50
2021/11/13 07:05:32;;;;;;;43.73;23.70;;;5.80;99.90;;;;;;5018468;28;20227;-51
2021/11/13 07:07:59;;;;;;;45.90;23.83;;;5.80;99.90;;;;;;5028311;28;20295;-51
2021/11/13 07:10:27;;;;;;;39.03;21.57;;;5.80;99.90;;;;;;5006644;28;20940;-52
2021/11/13 07:12:56;;;;;;;38.90;21.93;;;5.80;99.90;;;;;;5026135;28;20286;-49
2021/11/13 07:15:24;;;;;;;42.77;23.10;;;5.80;99.90;;;;;;5016724;28;20220;-54
2021/11/13 07:17:51;;;;;;;43.47;22.13;;;5.70;99.90;;;;;;5029069;28;20204;-51
2021/11/13 07:20:19;;;;;;;44.00;21.07;;;5.80;99.90;;;;;;5016163;28;20200;-55
2021/11/13 07:22:46;;;;;;;40.10;22.50;;;5.80;99.90;;;;;;5019006;28;20211;-53
2021/11/13 07:25:15;;;;;;;41.73;22.47;;;5.70;99.90;;;;;;5002752;28;20212;-50
2021/11/13 07:27:44;;;;;;;43.90;23.57;;;5.80;99.90;;;;;;5019979;28;20218;-53
2021/11/13 07:30:15;;;;;;;43.47;22.77;;;5.80;99.90;;;;;;5017296;28;20680;-54
2021/11/13 07:32:43;;;;;;;46.57;22.60;;;5.80;99.90;;;;;;5017295;28;20311;-48
2021/11/13 07:35:09;;;;;;;39.93;22.43;;;5.80;99.90;;;;;;5019798;28;20590;-52
2021/11/13 07:37:36;;;;;;;38.80;21.73;;;5.80;99.90;;;;;;5021775;28;20215;-50
2021/11/13 07:40:05;;;;;;;42.63;21.70;;;5.80;99.90;;;;;;5011466;28;20228;-50
2021/11/13 07:42:32;;;;;;;35.23;20.27;;;5.90;99.90;;;;;;5020136;28;20204;-54
2021/11/13 07:44:59;;;;;;;37.87;21.73;;;5.90;99.90;;;;;;5017354;28;20211;-53
2021/11/13 07:47:28;;;;;;;40.77;21.10;;;5.90;99.90;;;;;;5023103;28;20224;-50
2021/11/13 07:49:54;;;;;;;41.43;23.13;;;5.90;99.90;;;;;;5017191;28;20208;-49
2021/11/13 07:52:21;;;;;;;36.73;21.57;;;5.90;99.90;;;;;;5021113;28;20219;-51
2021/11/13 07:54:48;;;;;;;35.87;21.17;;;5.90;99.90;;;;;;5000131;28;21377;-53
2021/11/13 07:57:14;;;;;;;39.57;20.77;;;5.90;99.90;;;;;;5011696;28;20250;-53
2021/11/13 07:59:41;;;;;;;40.47;22.37;;;5.90;99.90;;;;;;5015790;28;20238;-52
2021/11/13 08:02:08;;;;;;;39.30;20.80;;;6.00;99.90;;;;;;5009131;28;20205;-54
2021/11/13 08:04:36;;;;;;;42.20;21.60;;;5.90;99.90;;;;;;5014561;28;20196;-55
2021/11/13 08:07:03;;;;;;;37.80;20.47;;;6.00;99.90;;;;;;5020744;28;20237;-50
2021/11/13 08:09:30;;;;;;;35.50;20.67;;;6.00;99.90;;;;;;5011604;28;20204;-53
2021/11/13 08:11:57;;;;;;;42.57;22.67;;;6.00;99.90;;;;;;5006237;28;20575;-51
2021/11/13 08:14:23;;;;;;;35.53;22.33;;;6.00;99.90;;;;;;5010738;28;20200;-53
2021/11/13 08:16:50;;;;;;;39.87;22.37;;;6.10;99.90;;;;;;5011687;28;20230;-53
2021/11/13 08:19:17;;;;;;;36.87;20.73;;;6.10;99.90;;;;;;5025374;28;20203;-51
2021/11/13 08:21:45;;;;;;;36.03;21.10;;;6.10;99.90;;;;;;5018097;28;20571;-49
2021/11/13 08:24:11;;;;;;;32.90;19.57;;;6.10;99.90;;;;;;5016774;28;20201;-49
2021/11/13 08:26:38;;;;;;;33.87;20.57;;;6.10;99.90;;;;;;5002919;28;20238;-49
2021/11/13 08:29:05;;;;;;;36.47;21.50;;;6.20;99.90;;;;;;5013668;28;20195;-51
2021/11/13 08:31:32;;;;;;;35.43;19.90;;;6.20;99.90;;;;;;5020745;28;20224;-53
2021/11/13 08:33:58;;;;;;;38.33;20.97;;;6.20;99.90;;;;;;5018632;28;20215;-49
2021/11/13 08:36:26;;;;;;;35.87;20.73;;;6.20;99.90;;;;;;5014903;28;20223;-54
2021/11/13 08:38:54;;;;;;;33.43;18.93;;;6.20;99.90;;;;;;5017106;28;20933;-55
2021/11/13 08:41:21;;;;;;;39.60;20.73;;;6.20;99.90;;;;;;5019133;28;20223;-55
2021/11/13 08:43:48;;;;;;;35.97;19.53;;;6.20;99.90;;;;;;5006238;28;20211;-51
2021/11/13 08:46:14;;;;;;;31.97;19.63;;;6.20;99.90;;;;;;5008915;28;20852;-54
2021/11/13 08:48:41;;;;;;;32.20;19.63;;;6.20;99.90;;;;;;5010416;28;20200;-53
2021/11/13 08:51:08;;;;;;;32.87;20.40;;;6.20;99.90;;;;;;5024087;28;20196;-55
2021/11/13 08:53:34;;;;;;;36.30;19.97;;;6.20;99.90;;;;;;5016297;28;20200;-55
2021/11/13 08:56:03;;;;;;;31.10;18.90;;;6.20;99.90;;;;;;5019111;28;20229;-55
2021/11/13 08:58:29;;;;;;;36.57;20.17;;;6.20;99.90;;;;;;5010731;28;20684;-54
2021/11/13 09:01:01;;;;;;;33.97;19.90;;;6.20;99.90;;;;;;5019550;28;20211;-51
2021/11/13 09:03:30;;;;;;;37.33;21.90;;;6.20;99.90;;;;;;5015719;28;20655;-53
2021/11/13 09:05:58;;;;;;;35.57;20.47;;;6.20;99.90;;;;;;5020483;28;20218;-56
2021/11/13 09:08:26;;;;;;;33.57;20.03;;;6.20;99.90;;;;;;5019471;28;20544;-54
2021/11/13 09:10:54;;;;;;;31.13;19.10;;;6.30;99.90;;;;;;5023851;28;20196;-55
2021/11/13 09:13:24;;;;;;;32.23;19.43;;;6.30;99.90;;;;;;5012008;28;20224;-54
2021/11/13 09:15:52;;;;;;;31.83;19.43;;;6.30;99.90;;;;;;5017059;28;20228;-54
2021/11/13 09:18:18;;;;;;;30.73;19.60;;;6.20;99.90;;;;;;5026085;28;20200;-51
2021/11/13 09:20:46;;;;;;;31.20;19.63;;;6.30;99.90;;;;;;5016050;28;20234;-54
2021/11/13 09:23:14;;;;;;;33.43;20.53;;;6.30;99.90;;;;;;5020476;28;20215;-51
2021/11/13 09:25:41;;;;;;;32.07;18.90;;;6.40;99.90;;;;;;5021745;28;20295;-54
2021/11/13 09:28:08;;;;;;;30.77;18.57;;;6.40;99.90;;;;;;5012454;28;20215;-54
2021/11/13 09:30:38;;;;;;;31.30;20.47;;;6.40;99.90;;;;;;5018393;28;20623;-53
2021/11/13 09:33:06;;;;;;;32.60;19.53;;;6.40;99.90;;;;;;5020085;28;20223;-54
2021/11/13 09:35:34;;;;;;;34.27;19.63;;;6.50;99.90;;;;;;5009337;28;20589;-55
2021/11/13 09:38:01;;;;;;;29.17;19.00;;;6.50;99.90;;;;;;5018410;28;20563;-52
2021/11/13 09:40:30;;;;;;;29.57;18.60;;;6.50;99.90;;;;;;5020023;28;20200;-51
2021/11/13 09:42:59;;;;;;;34.50;19.70;;;6.50;99.90;;;;;;5010823;28;20206;-55
2021/11/13 09:45:27;;;;;;;30.77;18.53;;;6.50;99.90;;;;;;5022298;28;20235;-53
2021/11/13 09:47:57;;;;;;;35.27;19.97;;;6.50;99.90;;;;;;5016035;28;20705;-54
2021/11/13 09:50:28;;;;;;;33.97;19.47;;;6.60;99.90;;;;;;5017561;28;20208;-54
2021/11/13 09:52:55;;;;;;;31.20;18.83;;;6.60;99.90;;;;;;5021690;28;20224;-55
2021/11/13 09:55:24;;;;;;;28.90;18.97;;;6.60;99.90;;;;;;5015555;28;20212;-55
2021/11/13 09:57:51;;;;;;;31.83;19.70;;;6.70;99.90;;;;;;5018930;28;20204;-55
2021/11/13 10:00:22;;;;;;;32.23;18.83;;;6.70;99.90;;;;;;5015106;28;20203;-49
2021/11/13 10:02:49;;;;;;;29.80;19.20;;;6.70;99.90;;;;;;5017077;28;20208;-54
2021/11/13 10:05:18;;;;;;;31.93;18.97;;;6.80;99.90;;;;;;5021257;28;20515;-53
2021/11/13 10:07:45;;;;;;;31.40;18.17;;;6.80;99.90;;;;;;5018237;28;20216;-54
2021/11/13 10:10:26;;;;;;;35.77;19.83;;;6.80;99.90;;;;;;5016059;28;20210;-51
2021/11/13 10:12:53;;;;;;;29.33;19.10;;;6.80;99.90;;;;;;5011271;28;20228;-54
2021/11/13 10:15:32;;;;;;;33.70;18.37;;;6.80;99.90;;;;;;5007029;28;20211;-54
2021/11/13 10:18:06;;;;;;;33.33;19.07;;;6.80;99.90;;;;;;5016410;28;20594;-54
2021/11/13 10:20:36;;;;;;;32.80;18.40;;;6.80;99.90;;;;;;5019030;28;20699;-53
2021/11/13 10:23:03;;;;;;;32.07;18.20;;;6.80;99.90;;;;;;5014520;28;20207;-53
2021/11/13 10:25:30;;;;;;;33.10;19.03;;;6.80;99.90;;;;;;5019106;28;20220;-48
2021/11/13 10:28:08;;;;;;;30.63;18.43;;;6.80;99.90;;;;;;5016741;28;20208;-53
2021/11/13 10:30:35;;;;;;;31.60;18.43;;;6.80;99.90;;;;;;5010550;28;20215;-49
2021/11/13 10:33:02;;;;;;;29.87;18.77;;;6.80;99.90;;;;;;5015349;28;20228;-52
2021/11/13 10:35:48;;;;;;;28.70;17.97;;;6.90;99.90;;;;;;5024227;28;20224;-52
2021/11/13 10:38:17;;;;;;;26.30;18.10;;;6.90;99.90;;;;;;5014725;28;20938;-52
2021/11/13 10:40:56;;;;;;;32.93;19.47;;;6.90;99.90;;;;;;5023710;28;20211;-50
2021/11/13 10:43:33;;;;;;;28.23;18.17;;;6.90;99.90;;;;;;5008750;28;20219;-50
2021/11/13 10:46:02;;;;;;;31.90;18.17;;;7.00;99.90;;;;;;5001801;28;20219;-54
2021/11/13 10:48:29;;;;;;;33.37;19.17;;;7.00;99.90;;;;;;5019043;28;20265;-53
2021/11/13 10:51:05;;;;;;;30.50;18.80;;;7.00;99.90;;;;;;5022092;28;20215;-54
2021/11/13 10:53:32;;;;;;;29.77;19.13;;;7.00;99.90;;;;;;5017758;28;20212;-54
2021/11/13 10:56:18;;;;;;;32.80;19.47;;;7.10;99.90;;;;;;5017824;28;20319;-52
2021/11/13 10:58:53;;;;;;;28.93;18.53;;;7.10;99.90;;;;;;5013911;28;20211;-54
2021/11/13 11:01:34;;;;;;;28.27;19.10;;;7.20;99.90;;;;;;5006781;28;20282;-51
2021/11/13 11:04:06;;;;;;;28.37;17.63;;;7.20;99.90;;;;;;5012410;28;20202;-52
2021/11/13 11:06:38;;;;;;;28.27;17.70;;;7.30;99.90;;;;;;5020065;28;20212;-51
2021/11/13 11:09:27;;;;;;;27.17;17.23;;;7.30;99.90;;;;;;5013936;28;20227;-52
2021/11/13 11:11:57;;;;;;;27.47;17.60;;;7.30;99.90;;;;;;5018747;28;20216;-53
2021/11/13 11:14:27;;;;;;;28.90;17.57;;;7.30;99.90;;;;;;5015485;28;20327;-51
2021/11/13 11:16:57;;;;;;;25.63;16.63;;;7.40;99.90;;;;;;5007572;28;20224;-53
2021/11/13 11:19:26;;;;;;;27.43;17.53;;;7.40;99.90;;;;;;5016422;28;20239;-48
2021/11/13 11:22:03;;;;;;;27.47;16.73;;;7.40;99.90;;;;;;5021970;28;20564;-52
2021/11/13 11:24:34;;;;;;;29.50;17.73;;;7.40;99.90;;;;;;5011016;28;20196;-53
2021/11/13 11:27:12;;;;;;;28.10;18.17;;;7.40;99.90;;;;;;5019298;28;20216;-54
2021/11/13 11:29:45;;;;;;;29.70;18.37;;;7.40;99.90;;;;;;5015924;28;20210;-48
2021/11/13 11:32:15;;;;;;;29.97;18.87;;;7.40;99.90;;;;;;4995601;28;20378;-53
2021/11/13 11:34:44;;;;;;;30.27;19.37;;;7.40;99.90;;;;;;5013494;28;20295;-51
2021/11/13 11:37:16;;;;;;;30.70;20.00;;;7.50;99.90;;;;;;5008796;28;20216;-50
2021/11/13 11:39:45;;;;;;;30.00;18.27;;;7.50;99.90;;;;;;5018135;28;20206;-50
2021/11/13 11:42:13;;;;;;;28.37;18.30;;;7.50;99.90;;;;;;5009577;28;20910;-52
2021/11/13 11:44:42;;;;;;;27.97;17.63;;;7.50;99.90;;;;;;5013283;28;20214;-53
2021/11/13 11:47:11;;;;;;;29.97;18.93;;;7.50;99.90;;;;;;5014189;28;20970;-49
2021/11/13 11:49:41;;;;;;;31.97;19.37;;;7.50;99.90;;;;;;5009472;28;20218;-50
2021/11/13 11:52:08;;;;;;;25.43;17.17;;;7.60;99.90;;;;;;5010876;28;20889;-51
2021/11/13 11:54:36;;;;;;;28.53;18.17;;;7.60;99.90;;;;;;5022892;28;20206;-48
2021/11/13 11:57:03;;;;;;;29.07;18.57;;;7.60;99.90;;;;;;5012902;28;20227;-53
2021/11/13 11:59:32;;;;;;;27.83;17.77;;;7.70;99.90;;;;;;5017797;28;20204;-53
2021/11/13 12:02:20;;;;;;;30.10;19.10;;;7.70;99.90;;;;;;5014727;28;20274;-52
2021/11/13 12:04:50;;;;;;;29.87;19.17;;;7.70;99.90;;;;;;5000762;28;20219;-53
2021/11/13 12:07:31;;;;;;;30.60;18.43;;;7.70;99.90;;;;;;5008556;28;20227;-50
2021/11/13 12:10:01;;;;;;;28.63;18.63;;;7.80;99.90;;;;;;5011247;28;20195;-50
2021/11/13 12:12:28;;;;;;;31.57;18.10;;;7.80;99.90;;;;;;5020336;28;20196;-52
2021/11/13 12:15:15;;;;;;;29.03;17.20;;;7.80;99.90;;;;;;5018815;28;20208;-54
2021/11/13 12:17:43;;;;;;;29.10;16.87;;;7.80;99.90;;;;;;5015758;28;20564;-52
2021/11/13 12:20:25;;;;;;;27.27;17.80;;;7.80;99.90;;;;;;5006576;28;20214;-52
2021/11/13 12:22:57;;;;;;;24.47;16.70;;;7.80;99.90;;;;;;5014508;28;20195;-55
2021/11/13 12:25:28;;;;;;;25.87;17.13;;;7.70;99.90;;;;;;5022754;28;20223;-50
2021/11/13 12:28:06;;;;;;;28.10;17.40;;;7.70;99.90;;;;;;5018531;28;20211;-54
2021/11/13 12:30:44;;;;;;;35.37;18.33;;;7.70;99.90;;;;;;5020208;28;20207;-51
2021/11/13 12:33:39;;;;;;;27.50;17.43;;;7.80;99.90;;;;;;5017745;28;21161;-54
2021/11/13 12:36:11;;;;;;;24.07;16.70;;;7.80;99.90;;;;;;5008797;28;20310;-51
2021/11/13 12:38:41;;;;;;;35.87;19.20;;;7.80;99.90;;;;;;5020273;28;20291;-50
2021/11/13 12:41:11;;;;;;;28.40;18.13;;;7.90;99.90;;;;;;5022973;28;20307;-54
2021/11/13 12:44:01;;;;;;;27.13;17.63;;;7.90;99.90;;;;;;5020484;28;20295;-51